createdAt,value
2018-07-12T00:01:50.523Z,59.92
2018-07-12T00:04:18.453Z,59.32
2018-07-12T00:06:46.147Z,59.61
2018-07-12T00:09:13.851Z,59.44
2018-07-12T00:11:41.574Z,59.84
2018-07-12T00:14:09.254Z,60.02
2018-07-12T00:16:36.946Z,60.54
2018-07-12T00:19:04.629Z,60.21
2018-07-12T00:21:32.321Z,60.36
2018-07-12T00:23:59.999Z,59.76
2018-07-12T00:26:27.697Z,61.00
2018-07-12T00:28:55.383Z,60.79
2018-07-12T00:31:23.079Z,60.20
2018-07-12T00:33:50.868Z,60.11
2018-07-12T00:36:18.502Z,59.12
2018-07-12T00:38:46.214Z,59.22
2018-07-12T00:41:13.902Z,59.10
2018-07-12T00:43:41.575Z,58.73
2018-07-12T00:46:09.256Z,58.89
2018-07-12T00:48:36.963Z,59.34
2018-07-12T00:51:04.678Z,59.19
2018-07-12T00:53:32.386Z,58.25
2018-07-12T00:56:00.066Z,58.49
2018-07-12T00:58:27.747Z,58.14
2018-07-12T01:00:55.423Z,58.02
2018-07-12T01:03:23.144Z,58.07
2018-07-12T01:05:50.833Z,58.60
2018-07-12T01:08:18.570Z,58.21
2018-07-12T01:10:46.232Z,58.15
2018-07-12T01:13:13.926Z,58.10
2018-07-12T01:15:41.606Z,58.35
2018-07-12T01:18:09.308Z,57.76
2018-07-12T01:20:36.989Z,58.36
2018-07-12T01:23:04.708Z,58.40
2018-07-12T01:25:32.414Z,57.97
2018-07-12T01:28:00.150Z,57.27
2018-07-12T01:30:27.825Z,57.95
2018-07-12T01:32:55.778Z,57.81
2018-07-12T01:35:23.451Z,57.24
2018-07-12T01:37:51.139Z,57.16
2018-07-12T01:40:18.857Z,57.19
2018-07-12T01:42:46.535Z,57.00
2018-07-12T01:45:14.287Z,57.08
2018-07-12T01:47:41.975Z,56.94
2018-07-12T01:50:09.675Z,57.29
2018-07-12T01:52:37.376Z,56.44
2018-07-12T01:55:05.052Z,56.79
2018-07-12T01:57:32.718Z,56.34
2018-07-12T02:00:00.435Z,56.35
2018-07-12T02:02:28.136Z,56.84
2018-07-12T02:04:56.096Z,56.54
2018-07-12T02:07:23.791Z,56.66
2018-07-12T02:09:51.476Z,55.83
2018-07-12T02:12:19.163Z,56.17
2018-07-12T02:14:46.860Z,56.37
2018-07-12T02:17:14.550Z,57.19
2018-07-12T02:19:42.313Z,57.42
2018-07-12T02:22:09.982Z,57.93
2018-07-12T02:24:37.686Z,58.17
2018-07-12T02:27:05.391Z,57.67
2018-07-12T02:29:33.083Z,58.27
2018-07-12T02:32:00.774Z,58.39
2018-07-12T02:34:28.482Z,58.47
2018-07-12T02:36:56.170Z,58.80
2018-07-12T02:39:23.868Z,59.39
2018-07-12T02:41:51.558Z,59.54
2018-07-12T02:44:19.266Z,59.53
2018-07-12T02:46:46.983Z,58.78
2018-07-12T02:49:14.765Z,59.35
2018-07-12T02:51:42.490Z,58.78
2018-07-12T02:54:10.159Z,59.05
2018-07-12T02:56:37.891Z,59.17
2018-07-12T02:59:05.573Z,59.55
2018-07-12T03:01:33.279Z,58.89
2018-07-12T03:04:00.966Z,59.11
2018-07-12T03:06:28.672Z,59.73
2018-07-12T03:08:56.365Z,59.79
2018-07-12T03:11:24.071Z,59.19
2018-07-12T03:13:52.015Z,59.85
2018-07-12T03:16:19.713Z,59.87
2018-07-12T03:18:47.407Z,60.67
2018-07-12T03:21:15.125Z,61.26
2018-07-12T03:23:42.805Z,61.15
2018-07-12T03:26:10.754Z,61.95
2018-07-12T03:28:38.438Z,61.07
2018-07-12T03:31:06.143Z,62.01
2018-07-12T03:33:33.828Z,61.77
2018-07-12T03:36:01.515Z,61.91
2018-07-12T03:38:29.206Z,61.95
2018-07-12T03:40:56.916Z,61.61
2018-07-12T03:43:24.617Z,62.14
2018-07-12T03:45:52.356Z,63.27
2018-07-12T03:48:20.047Z,63.61
2018-07-12T03:50:47.745Z,63.04
2018-07-12T03:53:15.478Z,63.32
2018-07-12T03:55:43.203Z,64.69
2018-07-12T03:58:10.969Z,64.63
2018-07-12T04:00:38.630Z,63.96
2018-07-12T04:03:06.327Z,63.75
2018-07-12T04:05:34.000Z,63.22
2018-07-12T04:08:01.695Z,63.51
2018-07-12T04:10:29.375Z,64.14
2018-07-12T04:12:57.087Z,64.05
2018-07-12T04:15:24.775Z,63.88
2018-07-12T04:17:52.476Z,64.34
2018-07-12T04:20:20.162Z,64.22
2018-07-12T04:22:47.868Z,64.19
2018-07-12T04:25:15.547Z,64.86
2018-07-12T04:27:43.239Z,63.60
2018-07-12T04:30:10.955Z,62.70
2018-07-12T04:32:38.667Z,61.37
2018-07-12T04:35:06.365Z,61.22
2018-07-12T04:37:34.063Z,61.50
2018-07-12T04:40:01.743Z,61.82
2018-07-12T04:42:29.450Z,62.53
2018-07-12T04:44:57.128Z,63.61
2018-07-12T04:47:24.834Z,64.25
2018-07-12T04:49:52.494Z,63.71
2018-07-12T04:52:20.195Z,63.70
2018-07-12T04:54:47.872Z,64.46
2018-07-12T04:57:15.557Z,64.00
2018-07-12T04:59:43.270Z,64.15
2018-07-12T05:02:10.963Z,64.86
2018-07-12T05:04:38.685Z,65.09
2018-07-12T05:07:06.411Z,64.80
2018-07-12T05:09:34.105Z,64.00
2018-07-12T05:12:01.781Z,64.79
2018-07-12T05:14:29.502Z,65.27
2018-07-12T05:16:57.174Z,65.08
2018-07-12T05:19:24.872Z,64.33
2018-07-12T05:21:52.586Z,64.70
2018-07-12T05:24:20.242Z,62.02
2018-07-12T05:26:47.944Z,62.38
2018-07-12T05:29:15.643Z,62.24
2018-07-12T05:31:43.358Z,61.74
2018-07-12T05:34:11.089Z,61.47
2018-07-12T05:36:54.566Z,60.85
2018-07-12T05:39:23.616Z,61.54
2018-07-12T05:41:53.511Z,62.84
2018-07-12T05:44:22.827Z,63.71
2018-07-12T05:46:52.079Z,64.28
2018-07-12T05:49:21.352Z,65.01
2018-07-12T05:51:50.591Z,66.93
2018-07-12T05:54:20.591Z,66.81
2018-07-12T05:56:49.907Z,71.31
2018-07-12T05:59:19.257Z,72.52
2018-07-12T06:02:05.558Z,71.32
2018-07-12T06:04:34.839Z,68.84
2018-07-12T06:07:04.140Z,67.07
2018-07-12T06:09:33.394Z,65.78
2018-07-12T06:12:02.580Z,66.49
2018-07-12T06:14:31.796Z,67.25
2018-07-12T06:17:01.119Z,65.60
2018-07-12T06:19:30.414Z,66.29
2018-07-12T06:21:59.691Z,65.71
2018-07-12T06:24:28.976Z,65.51
2018-07-12T06:26:58.231Z,66.97
2018-07-12T06:29:27.474Z,66.19
2018-07-12T06:31:56.700Z,66.81
2018-07-12T06:34:25.952Z,66.75
2018-07-12T06:36:55.322Z,66.86
2018-07-12T06:39:24.635Z,66.60
2018-07-12T06:41:54.107Z,66.89
2018-07-12T06:44:23.397Z,65.71
2018-07-12T06:46:52.664Z,66.05
2018-07-12T06:49:21.670Z,66.29
2018-07-12T06:51:50.910Z,66.88
2018-07-12T06:54:20.186Z,67.37
2018-07-12T06:56:49.505Z,66.54
2018-07-12T06:59:18.792Z,67.72
2018-07-12T07:01:48.029Z,69.17
2018-07-12T07:04:17.258Z,72.73
2018-07-12T07:06:46.570Z,76.13
2018-07-12T07:09:16.364Z,79.24
2018-07-12T07:11:45.660Z,80.94
2018-07-12T07:14:14.930Z,81.69
2018-07-12T07:16:44.235Z,82.36
2018-07-12T07:19:13.517Z,81.71
2018-07-12T07:21:42.766Z,82.87
2018-07-12T07:24:12.095Z,84.07
2018-07-12T07:26:41.436Z,83.50
2018-07-12T07:29:10.650Z,83.09
2018-07-12T07:31:40.001Z,82.30
2018-07-12T07:34:09.211Z,82.90
2018-07-12T07:36:38.498Z,83.39
2018-07-12T07:39:09.038Z,82.39
2018-07-12T07:41:38.295Z,82.42
2018-07-12T07:44:07.616Z,81.75
2018-07-12T07:46:36.920Z,80.67
2018-07-12T07:49:06.263Z,80.35
2018-07-12T07:51:35.496Z,79.63
2018-07-12T07:54:04.826Z,78.50
2018-07-12T07:56:34.169Z,77.23
2018-07-12T07:59:03.454Z,77.18
2018-07-12T08:01:32.979Z,76.25
2018-07-12T08:04:02.301Z,76.50
2018-07-12T08:06:31.555Z,75.59
2018-07-12T08:09:00.805Z,72.88
2018-07-12T08:11:30.115Z,71.76
2018-07-12T08:13:59.371Z,69.11
2018-07-12T08:16:28.636Z,66.79
2018-07-12T08:18:57.870Z,68.35
2018-07-12T08:21:27.183Z,68.24
2018-07-12T08:23:56.405Z,68.42
2018-07-12T08:26:25.423Z,66.92
2018-07-12T08:28:54.660Z,64.89
2018-07-12T08:31:23.894Z,66.10
2018-07-12T08:33:53.151Z,64.42
2018-07-12T08:36:22.495Z,64.57
2018-07-12T08:38:51.693Z,61.95
2018-07-12T08:41:20.981Z,62.01
2018-07-12T08:43:50.417Z,60.16
2018-07-12T08:46:19.867Z,60.37
2018-07-12T08:48:48.985Z,58.18
2018-07-12T08:51:18.256Z,59.29
2018-07-12T08:53:47.555Z,59.20
2018-07-12T08:56:16.777Z,59.17
2018-07-12T08:58:46.045Z,59.88
2018-07-12T09:01:15.249Z,61.39
2018-07-12T09:03:44.440Z,60.36
2018-07-12T09:06:13.689Z,61.40
2018-07-12T09:08:42.997Z,61.41
2018-07-12T09:11:12.183Z,61.57
2018-07-12T09:13:41.377Z,61.40
2018-07-12T09:16:10.581Z,61.60
2018-07-12T09:18:39.825Z,60.16
2018-07-12T09:21:09.130Z,54.50
2018-07-12T09:23:38.611Z,56.28
2018-07-12T09:26:07.611Z,56.89
2018-07-12T09:28:36.982Z,58.47
2018-07-12T09:31:06.267Z,57.01
2018-07-12T09:33:35.522Z,58.04
2018-07-12T09:36:04.736Z,56.63
2018-07-12T09:38:45.627Z,56.78
2018-07-12T09:41:14.939Z,54.23
2018-07-12T09:43:45.191Z,52.31
2018-07-12T09:46:14.694Z,52.39
2018-07-12T09:48:49.893Z,50.73
2018-07-12T09:51:19.169Z,50.89
2018-07-12T09:53:48.883Z,49.67
2018-07-12T09:56:18.303Z,48.20
2018-07-12T09:58:47.475Z,50.06
2018-07-12T10:01:22.036Z,52.53
2018-07-12T10:03:52.714Z,53.10
2018-07-12T10:06:25.978Z,51.17
2018-07-12T10:08:56.258Z,48.64
2018-07-12T10:11:30.636Z,46.50
2018-07-12T10:14:05.227Z,46.75
2018-07-12T10:16:39.603Z,46.20
2018-07-12T10:19:08.859Z,47.23
2018-07-12T10:21:37.846Z,49.21
2018-07-12T10:24:07.118Z,49.79
2018-07-12T10:26:36.331Z,49.52
2018-07-12T10:29:05.600Z,50.63
2018-07-12T10:31:34.816Z,51.08
2018-07-12T10:34:03.812Z,50.79
2018-07-12T10:36:32.802Z,50.20
2018-07-12T10:39:02.076Z,51.88
2018-07-12T10:41:31.391Z,51.73
2018-07-12T10:44:00.756Z,50.62
2018-07-12T10:46:30.030Z,51.48
2018-07-12T10:48:59.285Z,48.17
2018-07-12T10:51:28.575Z,47.64
2018-07-12T10:53:57.839Z,48.22
2018-07-12T10:56:27.118Z,49.54
2018-07-12T10:58:56.370Z,49.69
2018-07-12T11:01:25.584Z,49.93
2018-07-12T11:03:54.831Z,48.88
2018-07-12T11:06:24.067Z,49.83
2018-07-12T11:08:53.348Z,50.63
2018-07-12T11:11:22.591Z,49.79
2018-07-12T11:13:53.342Z,50.67
2018-07-12T11:16:22.342Z,50.91
2018-07-12T11:18:51.602Z,51.36
2018-07-12T11:21:20.903Z,51.18
2018-07-12T11:23:50.158Z,52.31
2018-07-12T11:26:19.503Z,54.07
2018-07-12T11:28:48.754Z,53.12
2018-07-12T11:31:18.025Z,53.26
2018-07-12T11:33:48.574Z,52.92
2018-07-12T11:36:18.003Z,52.81
2018-07-12T11:38:47.658Z,52.74
2018-07-12T11:41:16.679Z,52.45
2018-07-12T11:43:45.967Z,53.19
2018-07-12T11:46:16.091Z,52.35
2018-07-12T11:48:45.775Z,51.72
2018-07-12T11:51:15.103Z,49.05
2018-07-12T11:53:44.066Z,48.09
2018-07-12T11:56:13.373Z,46.09
2018-07-12T11:58:42.669Z,48.22
2018-07-12T12:01:12.000Z,48.14
2018-07-12T12:03:41.312Z,45.51
2018-07-12T12:06:10.589Z,48.71
2018-07-12T12:08:39.814Z,46.63
2018-07-12T12:11:09.137Z,48.30
2018-07-12T12:13:38.359Z,47.31
2018-07-12T12:16:07.666Z,48.06
2018-07-12T12:18:36.913Z,48.86
2018-07-12T12:21:06.139Z,49.27
2018-07-12T12:23:35.366Z,48.01
2018-07-12T12:26:04.713Z,47.25
2018-07-12T12:28:33.962Z,45.23
2018-07-12T12:31:03.350Z,47.29
2018-07-12T12:33:32.649Z,47.48
2018-07-12T12:36:01.978Z,47.24
2018-07-12T12:38:31.247Z,46.78
2018-07-12T12:41:00.550Z,48.08
2018-07-12T12:43:29.787Z,47.91
2018-07-12T12:45:59.043Z,48.58
2018-07-12T12:48:28.284Z,50.08
2018-07-12T12:50:57.647Z,49.62
2018-07-12T12:53:26.850Z,48.05
2018-07-12T12:55:56.145Z,47.31
2018-07-12T12:58:25.399Z,44.10
2018-07-12T13:00:54.676Z,41.83
2018-07-12T13:03:23.958Z,41.98
2018-07-12T13:05:53.278Z,42.31
2018-07-12T13:08:22.326Z,42.92
2018-07-12T13:10:51.605Z,42.45
2018-07-12T13:13:20.867Z,42.28
2018-07-12T13:15:50.190Z,44.36
2018-07-12T13:18:19.510Z,43.33
2018-07-12T13:20:48.808Z,43.07
2018-07-12T13:23:18.096Z,45.57
2018-07-12T13:25:47.516Z,45.74
2018-07-12T13:28:16.708Z,44.88
2018-07-12T13:30:46.063Z,43.61
2018-07-12T13:33:15.394Z,40.07
2018-07-12T13:35:44.709Z,40.46
2018-07-12T13:38:14.678Z,40.06
2018-07-12T13:40:43.976Z,41.73
2018-07-12T13:43:13.296Z,40.79
2018-07-12T13:45:42.547Z,41.22
2018-07-12T13:48:11.802Z,40.23
2018-07-12T13:50:41.046Z,41.47
2018-07-12T13:53:10.339Z,41.77
2018-07-12T13:55:39.734Z,39.99
2018-07-12T13:58:09.084Z,41.73
2018-07-12T14:00:38.221Z,41.12
2018-07-12T14:03:07.482Z,39.31
2018-07-12T14:05:37.151Z,39.39
2018-07-12T14:08:06.558Z,40.28
2018-07-12T14:10:35.630Z,41.25
2018-07-12T14:13:04.704Z,40.50
2018-07-12T14:15:34.128Z,40.25
2018-07-12T14:18:03.436Z,38.80
2018-07-12T14:20:32.694Z,39.46
2018-07-12T14:23:01.995Z,38.34
2018-07-12T14:25:31.240Z,37.88
2018-07-12T14:28:00.523Z,37.50
2018-07-12T14:30:29.666Z,39.80
2018-07-12T14:32:59.088Z,37.14
2018-07-12T14:35:28.316Z,38.83
2018-07-12T14:37:57.627Z,38.88
2018-07-12T14:40:26.834Z,37.38
2018-07-12T14:42:56.180Z,36.78
2018-07-12T14:45:25.439Z,38.38
2018-07-12T14:47:54.763Z,38.08
2018-07-12T14:50:24.067Z,39.59
2018-07-12T14:52:53.478Z,38.89
2018-07-12T14:55:22.697Z,38.62
2018-07-12T14:57:52.111Z,40.43
2018-07-12T15:00:21.365Z,40.05
2018-07-12T15:02:50.688Z,39.71
2018-07-12T15:05:19.633Z,39.96
2018-07-12T15:07:48.976Z,41.20
2018-07-12T15:10:18.706Z,40.92
2018-07-12T15:12:47.950Z,41.09
2018-07-12T15:15:17.194Z,39.75
2018-07-12T15:17:46.410Z,40.60
2018-07-12T15:20:15.650Z,41.55
2018-07-12T15:22:44.947Z,40.00
2018-07-12T15:25:14.217Z,39.32
2018-07-12T15:27:43.496Z,40.52
2018-07-12T15:30:12.775Z,40.00
2018-07-12T15:32:42.019Z,38.84
2018-07-12T15:35:11.682Z,39.96
2018-07-12T15:37:41.039Z,38.90
2018-07-12T15:40:11.278Z,39.23
2018-07-12T15:42:40.532Z,39.27
2018-07-12T15:45:09.830Z,40.52
2018-07-12T15:47:39.088Z,40.41
2018-07-12T15:50:08.365Z,39.35
2018-07-12T15:52:37.744Z,41.36
2018-07-12T15:55:07.415Z,42.64
2018-07-12T15:57:36.662Z,40.33
2018-07-12T16:00:06.446Z,38.70
2018-07-12T16:02:35.721Z,39.20
2018-07-12T16:05:05.014Z,38.54
2018-07-12T16:07:34.424Z,38.46
2018-07-12T16:10:03.774Z,39.50
2018-07-12T16:12:33.067Z,39.35
2018-07-12T16:15:02.333Z,37.42
2018-07-12T16:17:31.673Z,36.13
2018-07-12T16:20:00.977Z,38.02
2018-07-12T16:22:30.344Z,37.68
2018-07-12T16:24:59.654Z,37.42
2018-07-12T16:27:28.921Z,38.48
2018-07-12T16:29:58.251Z,39.43
2018-07-12T16:32:27.610Z,39.90
2018-07-12T16:34:57.088Z,39.40
2018-07-12T16:37:26.386Z,39.62
2018-07-12T16:39:55.668Z,39.33
2018-07-12T16:42:24.735Z,39.45
2018-07-12T16:44:53.977Z,39.93
2018-07-12T16:47:23.235Z,40.87
2018-07-12T16:49:52.518Z,39.75
2018-07-12T16:52:21.763Z,40.75
2018-07-12T16:54:51.067Z,36.53
2018-07-12T16:57:20.460Z,35.98
2018-07-12T17:02:33.337Z,31.84
2018-07-12T17:05:08.229Z,30.78
2018-07-12T17:07:51.196Z,32.35
2018-07-12T17:10:57.221Z,31.54
2018-07-12T17:20:53.301Z,29.43
2018-07-12T17:23:31.423Z,31.61
2018-07-12T17:26:01.153Z,33.54
2018-07-12T17:28:50.198Z,35.12
2018-07-12T17:31:39.167Z,34.46
2018-07-12T17:34:10.227Z,35.44
2018-07-12T17:36:42.582Z,36.30
2018-07-12T17:40:03.605Z,37.66
2018-07-12T17:43:19.987Z,37.24
2018-07-12T17:45:49.624Z,37.98
2018-07-12T17:48:19.011Z,38.34
2018-07-12T17:50:48.449Z,39.10
2018-07-12T17:53:17.882Z,39.68
2018-07-12T17:55:47.691Z,40.47
2018-07-12T17:58:17.884Z,39.95
2018-07-12T18:00:47.335Z,39.95
2018-07-12T18:03:16.723Z,41.06
2018-07-12T18:05:46.144Z,40.56
2018-07-12T18:08:15.574Z,41.84
2018-07-12T18:10:51.187Z,41.61
2018-07-12T18:13:20.816Z,41.58
2018-07-12T18:15:50.163Z,39.80
2018-07-12T18:18:19.802Z,40.40
2018-07-12T18:20:49.283Z,39.47
2018-07-12T18:23:21.123Z,39.40
2018-07-12T18:25:51.557Z,40.90
2018-07-12T18:28:21.027Z,41.87
2018-07-12T18:30:50.349Z,42.39
2018-07-12T18:33:19.470Z,42.31
2018-07-12T18:35:48.923Z,42.42
2018-07-12T18:38:18.400Z,43.51
2018-07-12T18:40:47.785Z,44.25
2018-07-12T18:43:17.111Z,44.27
2018-07-12T18:45:46.476Z,44.82
2018-07-12T18:48:15.948Z,45.30
2018-07-12T18:50:45.404Z,46.26
2018-07-12T18:53:14.810Z,46.42
2018-07-12T18:55:44.256Z,46.36
2018-07-12T18:58:13.599Z,47.29
2018-07-12T19:00:43.154Z,47.15
2018-07-12T19:03:12.594Z,47.48
2018-07-12T19:05:41.917Z,47.96
2018-07-12T19:08:11.414Z,48.35
2018-07-12T19:10:40.911Z,48.45
2018-07-12T19:13:10.398Z,48.94
2018-07-12T19:15:39.778Z,49.32
2018-07-12T19:18:09.191Z,49.76
2018-07-12T19:20:38.887Z,50.46
2018-07-12T19:23:08.012Z,50.72
2018-07-12T19:25:37.375Z,51.22
2018-07-12T19:28:06.763Z,50.90
2018-07-12T19:30:36.216Z,51.89
2018-07-12T19:33:05.547Z,51.92
2018-07-12T19:35:35.035Z,52.73
2018-07-12T19:38:04.087Z,54.83
2018-07-12T19:40:33.475Z,56.95
2018-07-12T19:43:02.872Z,57.38
2018-07-12T19:45:32.247Z,58.13
2018-07-12T19:48:01.631Z,58.32
2018-07-12T19:50:31.077Z,58.89
2018-07-12T19:53:00.712Z,59.21
2018-07-12T19:55:30.371Z,60.00
2018-07-12T19:58:00.000Z,60.43
2018-07-12T20:00:30.467Z,59.80
2018-07-12T20:06:47.992Z,60.02
2018-07-12T20:09:22.770Z,60.35
2018-07-12T20:11:56.050Z,60.98
2018-07-12T20:17:55.351Z,61.17
2018-07-12T20:20:31.880Z,61.42
2018-07-12T20:23:01.722Z,62.29
2018-07-12T20:25:30.861Z,62.70
2018-07-12T20:28:00.271Z,62.69
2018-07-12T20:30:29.607Z,62.41
2018-07-12T20:32:59.118Z,62.43
2018-07-12T20:35:28.590Z,62.47
2018-07-12T20:37:57.928Z,63.21
2018-07-12T20:40:27.418Z,63.66
2018-07-12T20:42:56.728Z,64.58
2018-07-12T20:45:26.001Z,64.12
2018-07-12T20:47:55.306Z,64.41
2018-07-12T20:50:24.720Z,64.13
2018-07-12T20:52:54.014Z,63.83
2018-07-12T20:55:23.359Z,64.84
2018-07-12T20:57:52.704Z,64.28
2018-07-12T21:00:22.313Z,64.68
2018-07-12T21:02:51.589Z,64.81
2018-07-12T21:05:20.897Z,65.30
2018-07-12T21:07:50.208Z,64.92
2018-07-12T21:10:19.562Z,65.02
2018-07-12T21:12:48.897Z,65.83
2018-07-12T21:15:18.317Z,66.15
2018-07-12T21:17:47.603Z,65.31
2018-07-12T21:20:16.942Z,66.08
2018-07-12T21:22:46.200Z,65.74
2018-07-12T21:25:15.563Z,65.73
2018-07-12T21:27:45.099Z,66.02
2018-07-12T21:30:14.476Z,65.97
2018-07-12T21:32:43.972Z,65.73
2018-07-12T21:35:13.368Z,66.71
2018-07-12T21:37:42.792Z,67.61
2018-07-12T21:40:12.006Z,67.69
2018-07-12T21:42:41.075Z,68.10
2018-07-12T21:45:10.441Z,68.17
2018-07-12T21:47:39.736Z,68.06
2018-07-12T21:50:08.845Z,67.57
2018-07-12T21:52:38.194Z,68.43
2018-07-12T21:55:07.529Z,68.33
2018-07-12T21:57:36.865Z,67.90
2018-07-12T22:00:08.958Z,69.17
2018-07-12T22:02:38.326Z,68.61
2018-07-12T22:05:07.628Z,69.31
2018-07-12T22:08:14.907Z,69.89
2018-07-12T22:10:45.070Z,70.58
2018-07-12T22:13:14.991Z,70.92
2018-07-12T22:15:44.346Z,71.41
2018-07-12T22:18:13.630Z,72.07
2018-07-12T22:20:42.911Z,72.35
2018-07-12T22:23:11.946Z,73.05
2018-07-12T22:25:41.203Z,73.44
2018-07-12T22:28:10.449Z,73.69
2018-07-12T22:30:39.845Z,74.05
2018-07-12T22:33:09.119Z,73.45
2018-07-12T22:35:38.330Z,73.50
2018-07-12T22:38:07.550Z,73.85
2018-07-12T22:40:36.758Z,74.05
2018-07-12T22:43:06.174Z,73.39
2018-07-12T22:45:35.440Z,73.64
2018-07-12T22:48:04.705Z,74.28
2018-07-12T22:50:33.911Z,74.42
2018-07-12T22:53:03.169Z,74.02
2018-07-12T22:55:32.397Z,75.18
2018-07-12T22:58:01.650Z,75.29
2018-07-12T23:00:30.887Z,74.50
2018-07-12T23:03:00.141Z,74.54
2018-07-12T23:05:29.367Z,75.04
2018-07-12T23:07:58.606Z,75.15
2018-07-12T23:10:27.856Z,75.13
2018-07-12T23:12:57.129Z,75.40
2018-07-12T23:15:26.387Z,74.09
2018-07-12T23:17:55.616Z,74.44
2018-07-12T23:20:24.886Z,74.72
2018-07-12T23:22:54.130Z,74.63
2018-07-12T23:25:23.443Z,75.13
2018-07-12T23:27:52.619Z,75.63
2018-07-12T23:30:21.831Z,75.78
2018-07-12T23:32:51.070Z,76.39
2018-07-12T23:35:20.300Z,76.02
2018-07-12T23:37:49.543Z,75.82
2018-07-12T23:40:18.759Z,76.74
2018-07-12T23:42:48.006Z,77.27
2018-07-12T23:45:17.243Z,77.56
2018-07-12T23:47:46.455Z,78.17
2018-07-12T23:50:15.677Z,78.37
2018-07-12T23:52:44.926Z,79.24
2018-07-12T23:55:14.190Z,79.34
2018-07-12T23:57:43.458Z,79.62
